createdAt,value
2023-01-31T00:00:24.534Z,0
2023-01-31T00:01:05.101Z,0
2023-01-31T00:01:46.486Z,0
2023-01-31T00:02:27.964Z,0
2023-01-31T00:03:08.397Z,0
2023-01-31T00:09:53.798Z,0
2023-01-31T00:10:34.828Z,0
2023-01-31T00:11:14.836Z,0
2023-01-31T00:11:55.385Z,0
2023-01-31T00:12:36.510Z,0
2023-01-31T00:13:17.031Z,0
2023-01-31T00:13:57.555Z,0
2023-01-31T00:14:38.485Z,0
2023-01-31T00:15:18.896Z,0
2023-01-31T00:22:04.143Z,0
2023-01-31T00:22:44.671Z,0
2023-01-31T00:23:25.204Z,0
2023-01-31T00:24:05.794Z,0
2023-01-31T00:24:46.323Z,0
2023-01-31T00:25:26.858Z,0
2023-01-31T00:26:07.403Z,0
2023-01-31T00:26:47.933Z,0
2023-01-31T00:27:28.433Z,0
2023-01-31T00:33:33.992Z,0
2023-01-31T00:34:14.534Z,0
2023-01-31T00:34:55.096Z,0
2023-01-31T00:35:35.946Z,0
2023-01-31T00:36:17.090Z,0
2023-01-31T00:36:57.676Z,0
2023-01-31T00:37:38.265Z,0
2023-01-31T00:41:52.988Z,0
2023-01-31T00:42:33.543Z,0
2023-01-31T00:43:14.156Z,0
2023-01-31T00:43:54.638Z,0
2023-01-31T00:48:09.319Z,0
2023-01-31T00:48:50.786Z,0
2023-01-31T00:49:32.180Z,0
2023-01-31T00:50:12.719Z,0
2023-01-31T00:52:14.367Z,0
2023-01-31T00:52:54.885Z,0
2023-01-31T00:53:35.932Z,0
2023-01-31T00:54:15.919Z,0
2023-01-31T00:54:56.444Z,0
2023-01-31T00:55:37.328Z,0
2023-01-31T00:56:18.060Z,0
2023-01-31T00:56:58.650Z,0
2023-01-31T01:01:54.596Z,0
2023-01-31T01:02:35.691Z,0
2023-01-31T01:03:15.564Z,0
2023-01-31T01:03:56.127Z,0
2023-01-31T01:06:39.187Z,0
2023-01-31T01:07:19.771Z,0
2023-01-31T01:08:00.348Z,0
2023-01-31T01:08:40.916Z,0
2023-01-31T01:09:21.495Z,0
2023-01-31T01:10:02.030Z,0
2023-01-31T01:10:42.572Z,0
2023-01-31T01:11:23.696Z,0
2023-01-31T01:14:17.546Z,0
2023-01-31T01:14:58.087Z,0
2023-01-31T01:15:38.597Z,0
2023-01-31T01:16:19.193Z,0
2023-01-31T01:18:48.002Z,0
2023-01-31T01:19:28.565Z,0
2023-01-31T01:20:09.108Z,0
2023-01-31T01:20:49.630Z,0
2023-01-31T01:23:33.042Z,0
2023-01-31T01:24:13.046Z,0
2023-01-31T01:24:53.631Z,0
2023-01-31T01:25:34.909Z,0
2023-01-31T01:26:14.762Z,0
2023-01-31T01:26:55.297Z,0
2023-01-31T01:27:35.982Z,0
2023-01-31T01:30:14.306Z,0
2023-01-31T01:30:54.852Z,0
2023-01-31T01:31:36.004Z,0
2023-01-31T01:32:16.052Z,0
2023-01-31T01:37:35.240Z,0
2023-01-31T01:38:15.803Z,0
2023-01-31T01:38:56.368Z,0
2023-01-31T01:39:36.948Z,0
2023-01-31T01:43:40.249Z,0
2023-01-31T01:44:20.848Z,0
2023-01-31T01:45:01.336Z,0
2023-01-31T01:45:41.969Z,0
2023-01-31T01:46:22.465Z,0
2023-01-31T01:47:03.050Z,0
2023-01-31T01:47:43.552Z,0
2023-01-31T01:48:24.075Z,0
2023-01-31T01:49:04.625Z,0
2023-01-31T01:55:50.026Z,0
2023-01-31T01:58:28.947Z,0
2023-01-31T01:59:09.079Z,0
2023-01-31T01:59:49.613Z,0
2023-01-31T02:00:30.183Z,0
2023-01-31T02:02:33.647Z,0
2023-01-31T02:03:14.110Z,0
2023-01-31T02:03:54.643Z,0
2023-01-31T02:04:35.146Z,0
2023-01-31T02:05:15.695Z,0
2023-01-31T02:05:56.342Z,0
2023-01-31T02:06:36.835Z,0
2023-01-31T02:07:17.426Z,0
2023-01-31T02:07:57.964Z,0
2023-01-31T02:14:43.538Z,0
2023-01-31T02:15:24.565Z,0
2023-01-31T02:16:04.645Z,0
2023-01-31T02:16:45.275Z,0
2023-01-31T02:17:25.754Z,0
2023-01-31T02:18:06.246Z,0
2023-01-31T02:18:46.844Z,0
2023-01-31T02:19:27.658Z,0
2023-01-31T02:22:21.473Z,0
2023-01-31T02:23:01.980Z,0
2023-01-31T02:23:42.586Z,0
2023-01-31T02:24:23.625Z,0
2023-01-31T02:28:26.539Z,0
2023-01-31T02:29:06.938Z,0
2023-01-31T02:31:45.446Z,0
2023-01-31T02:32:26.174Z,0
2023-01-31T02:33:07.402Z,0
2023-01-31T02:33:47.976Z,0
2023-01-31T02:35:50.487Z,0
2023-01-31T02:36:30.965Z,0
2023-01-31T02:37:11.485Z,0
2023-01-31T02:37:51.975Z,0
2023-01-31T02:38:32.492Z,0
2023-01-31T02:39:13.038Z,0
2023-01-31T02:41:52.137Z,0
2023-01-31T02:42:32.657Z,0
2023-01-31T02:43:13.222Z,0
2023-01-31T02:43:53.723Z,0
2023-01-31T02:47:57.140Z,0
2023-01-31T02:48:37.577Z,0
2023-01-31T02:49:18.128Z,0
2023-01-31T02:49:58.634Z,0
2023-01-31T02:50:39.163Z,0
2023-01-31T02:53:17.665Z,0
2023-01-31T02:53:58.234Z,0
2023-01-31T02:54:38.779Z,0
2023-01-31T02:55:19.543Z,0
2023-01-31T02:58:54.363Z,0
2023-01-31T02:59:37.618Z,0
2023-01-31T03:00:24.061Z,0
2023-01-31T03:03:03.046Z,0
2023-01-31T03:03:43.555Z,0
2023-01-31T03:04:24.164Z,0
2023-01-31T03:05:04.660Z,0
2023-01-31T03:09:07.922Z,0
2023-01-31T03:09:48.457Z,0
2023-01-31T03:12:27.729Z,0
2023-01-31T03:13:08.247Z,0
2023-01-31T03:13:48.730Z,0
2023-01-31T03:14:29.295Z,0
2023-01-31T03:17:52.874Z,0
2023-01-31T03:18:33.408Z,0
2023-01-31T03:19:14.072Z,0
2023-01-31T03:19:54.404Z,0
2023-01-31T03:20:34.984Z,0
2023-01-31T03:21:15.522Z,0
2023-01-31T03:21:56.074Z,0
2023-01-31T03:22:36.623Z,0
2023-01-31T03:23:17.151Z,0
2023-01-31T03:29:22.600Z,0
2023-01-31T03:30:03.122Z,0
2023-01-31T03:30:44.629Z,0
2023-01-31T03:31:25.102Z,0
2023-01-31T03:32:05.505Z,0
2023-01-31T03:32:45.993Z,0
2023-01-31T03:33:26.563Z,0
2023-01-31T03:34:07.137Z,0
2023-01-31T03:40:52.492Z,0
2023-01-31T03:41:33.120Z,0
2023-01-31T03:42:13.632Z,0
2023-01-31T03:42:55.874Z,0
2023-01-31T03:43:36.436Z,0
2023-01-31T03:44:17.090Z,0
2023-01-31T03:51:02.290Z,0
2023-01-31T03:51:42.845Z,0
2023-01-31T03:52:23.336Z,0
2023-01-31T03:53:03.865Z,0
2023-01-31T03:53:44.398Z,0
2023-01-31T03:54:25.597Z,0
2023-01-31T03:55:06.121Z,0
2023-01-31T03:55:46.674Z,0
2023-01-31T03:56:27.206Z,0
2023-01-31T04:03:12.626Z,0
2023-01-31T04:03:53.033Z,0
2023-01-31T04:04:33.536Z,0
2023-01-31T04:05:14.808Z,0
2023-01-31T04:05:55.279Z,0
2023-01-31T04:06:35.800Z,0
2023-01-31T04:07:16.865Z,0
2023-01-31T04:07:56.847Z,0
2023-01-31T04:15:22.993Z,0
2023-01-31T04:16:03.320Z,0
2023-01-31T04:16:43.850Z,0
2023-01-31T04:17:24.411Z,0
2023-01-31T04:18:04.957Z,0
2023-01-31T04:18:45.511Z,0
2023-01-31T04:19:26.056Z,0
2023-01-31T04:20:06.575Z,0
2023-01-31T04:20:47.103Z,0
2023-01-31T04:27:32.474Z,0
2023-01-31T04:28:13.025Z,0
2023-01-31T04:28:54.393Z,0
2023-01-31T04:29:34.947Z,0
2023-01-31T04:30:16.299Z,0
2023-01-31T04:30:56.948Z,0
2023-01-31T04:31:37.433Z,0
2023-01-31T04:37:14.795Z,0
2023-01-31T04:37:55.336Z,0
2023-01-31T04:38:35.869Z,0
2023-01-31T04:39:16.363Z,0
2023-01-31T04:41:18.091Z,0
2023-01-31T04:41:58.634Z,0
2023-01-31T04:42:39.129Z,0
2023-01-31T04:43:19.659Z,0
2023-01-31T04:44:00.218Z,0
2023-01-31T04:44:40.738Z,0
2023-01-31T04:45:21.622Z,0
2023-01-31T04:46:01.805Z,0
2023-01-31T04:46:42.354Z,0
2023-01-31T04:52:47.846Z,0
2023-01-31T04:53:28.331Z,0
2023-01-31T04:54:09.247Z,0
2023-01-31T04:54:49.418Z,0
2023-01-31T04:55:29.940Z,0
2023-01-31T04:56:10.440Z,0
2023-01-31T04:56:50.962Z,0
2023-01-31T04:57:31.748Z,0
2023-01-31T04:58:12.060Z,0
2023-01-31T04:58:52.549Z,0
2023-01-31T05:04:58.184Z,0
2023-01-31T05:05:38.729Z,0
2023-01-31T05:06:19.245Z,0
2023-01-31T05:06:59.773Z,0
2023-01-31T05:07:40.290Z,0
2023-01-31T05:08:20.853Z,0
2023-01-31T05:09:02.196Z,0
2023-01-31T05:09:42.688Z,0
2023-01-31T05:15:48.184Z,0
2023-01-31T05:16:28.848Z,0
2023-01-31T05:17:09.323Z,0
2023-01-31T05:17:49.884Z,0
2023-01-31T05:18:30.439Z,0
2023-01-31T05:19:11.025Z,0
2023-01-31T05:19:51.537Z,0
2023-01-31T05:20:32.599Z,0
2023-01-31T05:21:12.588Z,0
2023-01-31T05:27:57.840Z,0
2023-01-31T05:28:38.410Z,0
2023-01-31T05:29:18.897Z,0
2023-01-31T05:29:59.421Z,0
2023-01-31T05:30:39.965Z,0
2023-01-31T05:31:20.631Z,0
2023-01-31T05:32:01.011Z,0
2023-01-31T05:32:41.495Z,0
2023-01-31T05:33:22.044Z,0
2023-01-31T05:39:28.385Z,0
2023-01-31T05:40:08.878Z,0
2023-01-31T05:40:49.409Z,0
2023-01-31T05:41:29.905Z,0
2023-01-31T05:42:10.449Z,0
2023-01-31T05:42:50.996Z,0
2023-01-31T05:43:31.546Z,0
2023-01-31T05:44:12.065Z,0
2023-01-31T05:44:52.562Z,0
2023-01-31T05:51:37.821Z,0
2023-01-31T05:52:18.337Z,0
2023-01-31T05:52:58.835Z,0
2023-01-31T05:53:39.382Z,0
2023-01-31T05:54:19.927Z,0
2023-01-31T05:55:00.492Z,0
2023-01-31T05:55:40.961Z,0
2023-01-31T05:56:21.498Z,0
2023-01-31T05:57:02.606Z,0
2023-01-31T05:57:42.591Z,0
2023-01-31T06:03:08.259Z,0
2023-01-31T06:03:48.697Z,0
2023-01-31T06:04:29.212Z,0
2023-01-31T06:05:09.744Z,0
2023-01-31T06:05:50.228Z,0
2023-01-31T06:06:30.876Z,0
2023-01-31T06:07:11.245Z,0
2023-01-31T06:07:52.393Z,0
2023-01-31T06:13:28.227Z,0
2023-01-31T06:14:09.392Z,0
2023-01-31T06:14:49.896Z,0
2023-01-31T06:15:31.225Z,0
2023-01-31T06:17:33.033Z,0
2023-01-31T06:18:13.367Z,0
2023-01-31T06:18:53.953Z,0
2023-01-31T06:19:35.388Z,0
2023-01-31T06:20:15.930Z,0
2023-01-31T06:20:56.450Z,0
2023-01-31T06:21:36.970Z,0
2023-01-31T06:22:17.507Z,0
2023-01-31T06:28:23.898Z,0
2023-01-31T06:29:04.401Z,0
2023-01-31T06:29:44.939Z,0
2023-01-31T06:30:25.541Z,0
2023-01-31T06:31:06.055Z,0
2023-01-31T06:31:46.508Z,0
2023-01-31T06:32:26.982Z,0
2023-01-31T06:33:07.509Z,0
2023-01-31T06:39:12.929Z,0
2023-01-31T06:39:53.452Z,0
2023-01-31T06:40:33.998Z,0
2023-01-31T06:41:14.541Z,0
2023-01-31T06:41:55.555Z,0
2023-01-31T06:42:35.558Z,0
2023-01-31T06:43:17.609Z,0
2023-01-31T06:45:51.602Z,0
2023-01-31T06:46:32.982Z,0
2023-01-31T06:47:13.188Z,0
2023-01-31T06:47:53.728Z,0
2023-01-31T06:50:11.910Z,0
2023-01-31T06:50:52.417Z,0
2023-01-31T06:51:32.994Z,0
2023-01-31T06:52:15.096Z,0
2023-01-31T06:54:54.367Z,0
2023-01-31T06:55:34.468Z,0
2023-01-31T06:56:15.017Z,0
2023-01-31T06:56:56.250Z,0
2023-01-31T06:59:10.149Z,5
2023-01-31T06:59:50.670Z,5
2023-01-31T07:00:31.563Z,0
2023-01-31T07:01:11.729Z,5
2023-01-31T07:05:14.879Z,5
2023-01-31T07:05:56.404Z,5
2023-01-31T07:06:36.740Z,5
2023-01-31T07:07:17.239Z,5
2023-01-31T07:07:57.765Z,10
2023-01-31T07:08:38.286Z,5
2023-01-31T07:09:18.788Z,5
2023-01-31T07:09:59.284Z,5
2023-01-31T07:12:33.177Z,10
2023-01-31T07:13:13.699Z,10
2023-01-31T07:13:54.231Z,10
2023-01-31T07:14:34.761Z,10
2023-01-31T07:18:37.873Z,10
2023-01-31T07:19:18.399Z,10
2023-01-31T07:19:58.969Z,15
2023-01-31T07:20:39.523Z,15
2023-01-31T07:21:20.045Z,15
2023-01-31T07:22:00.598Z,15
2023-01-31T07:22:41.905Z,15
2023-01-31T07:23:22.451Z,15
2023-01-31T07:30:59.887Z,40
2023-01-31T07:31:40.387Z,40
2023-01-31T07:32:20.897Z,45
2023-01-31T07:33:01.422Z,45
2023-01-31T07:36:24.875Z,55
2023-01-31T07:37:05.422Z,50
2023-01-31T07:37:45.923Z,50
2023-01-31T07:38:26.471Z,50
2023-01-31T07:39:07.001Z,55
2023-01-31T07:39:47.594Z,60
2023-01-31T07:40:28.156Z,55
2023-01-31T07:41:08.689Z,55
2023-01-31T07:41:49.199Z,60
2023-01-31T07:45:04.700Z,55
2023-01-31T07:45:42.112Z,50
2023-01-31T07:46:22.716Z,60
2023-01-31T07:47:03.338Z,60
2023-01-31T07:49:16.438Z,60
2023-01-31T07:49:57.012Z,55
2023-01-31T07:50:37.604Z,60
2023-01-31T07:51:18.130Z,65
2023-01-31T07:55:13.524Z,55
2023-01-31T07:55:54.064Z,50
2023-01-31T07:56:35.303Z,45
2023-01-31T07:57:15.817Z,45
2023-01-31T08:00:39.077Z,50
2023-01-31T08:01:19.613Z,50
2023-01-31T08:02:00.118Z,55
2023-01-31T08:02:40.593Z,60
2023-01-31T08:03:21.120Z,55
2023-01-31T08:04:14.451Z,60
2023-01-31T08:04:42.173Z,65
2023-01-31T08:05:23.195Z,65
2023-01-31T08:11:28.313Z,70
2023-01-31T08:12:08.848Z,80
2023-01-31T08:12:50.200Z,75
2023-01-31T08:13:29.909Z,75
2023-01-31T08:14:10.424Z,80
2023-01-31T08:14:50.991Z,80
2023-01-31T08:15:31.853Z,80
2023-01-31T08:16:12.052Z,80
2023-01-31T08:16:52.591Z,80
2023-01-31T08:17:33.068Z,85
2023-01-31T08:23:49.332Z,120
2023-01-31T08:24:30.343Z,120
2023-01-31T08:25:11.350Z,115
2023-01-31T08:25:51.878Z,105
2023-01-31T08:28:33.966Z,75
2023-01-31T08:29:15.420Z,75
2023-01-31T08:29:55.939Z,75
2023-01-31T08:30:36.500Z,75
2023-01-31T08:31:18.084Z,70
2023-01-31T08:37:24.458Z,65
2023-01-31T08:38:15.916Z,70
2023-01-31T08:38:45.533Z,75
2023-01-31T08:39:26.007Z,80
2023-01-31T08:40:06.532Z,80
2023-01-31T08:40:47.000Z,90
2023-01-31T08:41:27.670Z,95
2023-01-31T08:42:08.159Z,85
2023-01-31T08:42:48.685Z,85
2023-01-31T08:49:33.950Z,80
2023-01-31T08:50:25.925Z,75
2023-01-31T08:50:54.989Z,70
2023-01-31T08:51:35.540Z,70
2023-01-31T08:52:16.632Z,65
2023-01-31T08:52:57.131Z,65
2023-01-31T08:53:37.651Z,70
2023-01-31T08:54:18.240Z,85
2023-01-31T08:54:58.762Z,125
2023-01-31T09:00:36.192Z,200
2023-01-31T09:01:16.857Z,200
2023-01-31T09:01:58.000Z,230
2023-01-31T09:02:39.068Z,270
2023-01-31T09:04:53.553Z,205
2023-01-31T09:05:34.518Z,205
2023-01-31T09:06:14.634Z,210
2023-01-31T09:06:55.212Z,205
2023-01-31T09:10:18.356Z,155
2023-01-31T09:10:58.881Z,145
2023-01-31T09:13:13.627Z,140
2023-01-31T09:13:54.133Z,140
2023-01-31T09:14:34.642Z,150
2023-01-31T09:15:15.169Z,155
2023-01-31T09:16:37.716Z,150
2023-01-31T09:17:18.311Z,160
2023-01-31T09:17:59.507Z,160
2023-01-31T09:18:40.052Z,170
2023-01-31T09:19:20.552Z,175
2023-01-31T09:23:54.057Z,125
2023-01-31T09:24:34.585Z,120
2023-01-31T09:25:15.054Z,120
2023-01-31T09:25:55.599Z,115
2023-01-31T09:27:59.197Z,130
2023-01-31T09:28:39.764Z,135
2023-01-31T09:29:20.300Z,140
2023-01-31T09:30:00.787Z,145
2023-01-31T09:30:41.345Z,155
2023-01-31T09:31:22.013Z,155
2023-01-31T09:32:02.596Z,170
2023-01-31T09:32:43.192Z,180
2023-01-31T09:33:23.694Z,185
2023-01-31T09:40:09.020Z,125
2023-01-31T09:40:49.553Z,110
2023-01-31T09:41:30.824Z,100
2023-01-31T09:42:10.667Z,100
2023-01-31T09:42:51.258Z,100
2023-01-31T09:43:32.265Z,115
2023-01-31T09:44:12.255Z,125
2023-01-31T09:44:52.769Z,150
2023-01-31T09:50:59.005Z,250
2023-01-31T09:51:39.521Z,260
2023-01-31T09:52:20.048Z,245
2023-01-31T09:53:00.555Z,245
2023-01-31T09:53:41.134Z,240
2023-01-31T09:54:21.706Z,220
2023-01-31T09:55:02.727Z,195
2023-01-31T09:55:43.267Z,200
2023-01-31T09:58:36.978Z,215
2023-01-31T09:59:17.094Z,220
2023-01-31T09:59:57.661Z,225
2023-01-31T10:00:38.236Z,235
2023-01-31T10:04:41.377Z,220
2023-01-31T10:05:22.384Z,220
2023-01-31T10:09:04.550Z,215
2023-01-31T10:09:45.022Z,215
2023-01-31T10:10:25.587Z,230
2023-01-31T10:11:06.175Z,230
2023-01-31T10:14:29.355Z,165
2023-01-31T10:15:09.494Z,165
2023-01-31T10:15:49.987Z,165
2023-01-31T10:16:30.532Z,165
2023-01-31T10:17:11.204Z,180
2023-01-31T10:17:51.676Z,185
2023-01-31T10:18:32.872Z,185
2023-01-31T10:19:13.348Z,205
2023-01-31T10:24:54.251Z,270
2023-01-31T10:25:35.465Z,270
2023-01-31T10:26:16.046Z,255
2023-01-31T10:26:56.547Z,235
2023-01-31T10:30:19.758Z,230
2023-01-31T10:30:59.947Z,225
2023-01-31T10:31:42.823Z,220
2023-01-31T10:32:20.969Z,220
2023-01-31T10:33:01.609Z,225
2023-01-31T10:33:42.265Z,210
2023-01-31T10:34:22.812Z,205
2023-01-31T10:35:03.341Z,205
2023-01-31T10:35:43.874Z,180
2023-01-31T10:42:41.663Z,135
2023-01-31T10:43:22.460Z,130
2023-01-31T10:44:03.125Z,135
2023-01-31T10:44:44.543Z,135
2023-01-31T10:48:19.919Z,165
2023-01-31T10:49:00.530Z,190
2023-01-31T10:49:41.268Z,195
2023-01-31T10:50:22.144Z,205
2023-01-31T10:52:41.941Z,220
2023-01-31T10:53:22.627Z,225
2023-01-31T10:54:02.991Z,235
2023-01-31T10:54:43.880Z,250
2023-01-31T10:58:33.698Z,295
2023-01-31T10:59:14.238Z,275
2023-01-31T10:59:54.728Z,265
2023-01-31T11:00:35.282Z,260
2023-01-31T11:02:38.563Z,260
2023-01-31T11:03:19.112Z,270
2023-01-31T11:04:00.577Z,285
2023-01-31T11:04:41.193Z,295
2023-01-31T11:05:22.000Z,305
2023-01-31T11:06:02.205Z,310
2023-01-31T11:06:42.758Z,310
2023-01-31T11:09:02.429Z,320
2023-01-31T11:09:43.014Z,330
2023-01-31T11:10:23.867Z,350
2023-01-31T11:11:04.081Z,355
2023-01-31T11:13:57.671Z,345
2023-01-31T11:14:38.176Z,340
2023-01-31T11:15:18.709Z,330
2023-01-31T11:15:59.183Z,315
2023-01-31T11:19:33.524Z,275
2023-01-31T11:20:14.125Z,265
2023-01-31T11:20:54.652Z,260
2023-01-31T11:21:35.239Z,240
2023-01-31T11:24:08.622Z,260
2023-01-31T11:24:49.299Z,260
2023-01-31T11:25:29.881Z,255
2023-01-31T11:26:10.373Z,240
2023-01-31T11:30:13.580Z,195
2023-01-31T11:30:54.157Z,175
2023-01-31T11:31:34.658Z,165
2023-01-31T11:32:15.127Z,155
2023-01-31T11:32:55.686Z,150
2023-01-31T11:33:36.195Z,150
2023-01-31T11:34:16.734Z,145
2023-01-31T11:34:57.269Z,145
2023-01-31T11:41:56.066Z,265
2023-01-31T11:42:36.597Z,235
2023-01-31T11:43:17.103Z,200
2023-01-31T11:43:57.604Z,170
2023-01-31T11:48:12.489Z,180
2023-01-31T11:48:53.041Z,185
2023-01-31T11:49:33.619Z,185
2023-01-31T11:50:14.127Z,185
2023-01-31T11:53:37.327Z,185
2023-01-31T11:54:17.941Z,190
2023-01-31T11:55:02.892Z,195
2023-01-31T11:56:27.731Z,185
2023-01-31T11:57:09.272Z,165
2023-01-31T11:57:49.904Z,150
2023-01-31T11:58:30.609Z,135
2023-01-31T11:59:12.790Z,115
2023-01-31T12:02:06.574Z,140
2023-01-31T12:02:47.105Z,140
2023-01-31T12:03:27.616Z,150
2023-01-31T12:04:08.163Z,160
2023-01-31T12:06:51.663Z,145
2023-01-31T12:07:32.177Z,150
2023-01-31T12:08:13.394Z,165
2023-01-31T12:08:54.190Z,175
2023-01-31T12:09:34.448Z,185
2023-01-31T12:10:15.879Z,185
2023-01-31T12:13:18.389Z,190
2023-01-31T12:13:51.100Z,190
2023-01-31T12:14:31.899Z,200
2023-01-31T12:15:12.396Z,210
2023-01-31T12:17:30.546Z,245
2023-01-31T12:18:11.071Z,240
2023-01-31T12:18:51.611Z,225
2023-01-31T12:19:32.155Z,205
2023-01-31T12:23:35.968Z,175
2023-01-31T12:24:16.524Z,180
2023-01-31T12:24:56.998Z,180
2023-01-31T12:25:37.545Z,175
2023-01-31T12:28:16.080Z,140
2023-01-31T12:28:56.664Z,135
2023-01-31T12:29:37.157Z,130
2023-01-31T12:30:17.711Z,130
2023-01-31T12:34:21.714Z,150
2023-01-31T12:35:05.245Z,140
2023-01-31T12:37:35.795Z,140
2023-01-31T12:38:17.100Z,125
2023-01-31T12:38:57.710Z,120
2023-01-31T12:39:38.280Z,120
2023-01-31T12:41:51.915Z,120
2023-01-31T12:42:32.408Z,120
2023-01-31T12:43:12.958Z,120
2023-01-31T12:43:53.487Z,120
2023-01-31T12:47:57.015Z,125
2023-01-31T12:48:38.834Z,125
2023-01-31T12:49:22.818Z,120
2023-01-31T12:50:05.641Z,120
2023-01-31T12:52:33.931Z,110
2023-01-31T12:53:14.497Z,105
2023-01-31T12:53:55.835Z,110
2023-01-31T12:54:36.440Z,105
2023-01-31T12:56:38.747Z,95
2023-01-31T12:59:16.168Z,105
2023-01-31T12:59:53.593Z,100
2023-01-31T13:00:34.158Z,105
2023-01-31T13:01:14.774Z,110
2023-01-31T13:06:09.999Z,120
2023-01-31T13:06:50.516Z,125
2023-01-31T13:07:31.921Z,130
2023-01-31T13:08:11.606Z,125
2023-01-31T13:10:54.827Z,110
2023-01-31T13:11:35.348Z,110
2023-01-31T13:12:15.953Z,100
2023-01-31T13:12:56.452Z,95
2023-01-31T13:13:37.044Z,90
2023-01-31T13:14:17.681Z,90
2023-01-31T13:14:58.252Z,85
2023-01-31T13:15:38.812Z,85
2023-01-31T13:16:19.471Z,85
2023-01-31T13:23:04.986Z,115
2023-01-31T13:23:45.585Z,115
2023-01-31T13:24:26.187Z,120
2023-01-31T13:25:06.806Z,120
2023-01-31T13:25:47.440Z,110
2023-01-31T13:26:28.072Z,95
2023-01-31T13:27:08.537Z,85
2023-01-31T13:27:49.083Z,80
2023-01-31T13:34:34.761Z,95
2023-01-31T13:35:15.347Z,100
2023-01-31T13:35:55.914Z,95
2023-01-31T13:36:36.619Z,95
2023-01-31T13:37:17.006Z,90
2023-01-31T13:37:57.594Z,95
2023-01-31T13:38:38.144Z,85
2023-01-31T13:39:18.655Z,85
2023-01-31T13:39:59.236Z,90
2023-01-31T13:46:04.958Z,65
2023-01-31T13:46:45.448Z,70
2023-01-31T13:47:27.479Z,70
2023-01-31T13:48:08.019Z,70
2023-01-31T13:48:48.567Z,70
2023-01-31T13:55:34.758Z,55
2023-01-31T13:56:15.232Z,65
2023-01-31T13:56:55.776Z,70
2023-01-31T13:57:36.450Z,70
2023-01-31T13:58:16.981Z,70
2023-01-31T13:58:57.517Z,70
2023-01-31T13:59:38.791Z,70
2023-01-31T14:00:19.512Z,70
2023-01-31T14:07:05.490Z,75
2023-01-31T14:07:46.026Z,75
2023-01-31T14:08:26.593Z,80
2023-01-31T14:09:07.142Z,90
2023-01-31T14:09:47.685Z,90
2023-01-31T14:12:16.061Z,90
2023-01-31T14:12:56.721Z,95
2023-01-31T14:13:37.227Z,100
2023-01-31T14:14:17.801Z,110
2023-01-31T14:16:37.970Z,125
2023-01-31T14:17:21.069Z,125
2023-01-31T14:18:01.720Z,120
2023-01-31T14:18:46.053Z,120
2023-01-31T14:19:26.641Z,110
2023-01-31T14:22:56.140Z,110
2023-01-31T14:25:43.261Z,85
2023-01-31T14:26:23.799Z,90
2023-01-31T14:27:05.182Z,95
2023-01-31T14:27:45.735Z,100
2023-01-31T14:28:27.181Z,95
2023-01-31T14:29:55.577Z,90
2023-01-31T14:30:36.163Z,90
2023-01-31T14:32:45.639Z,85
2023-01-31T14:34:52.980Z,85
2023-01-31T14:35:34.435Z,85
2023-01-31T14:37:42.593Z,85
2023-01-31T14:38:25.575Z,85
2023-01-31T14:41:20.894Z,115
2023-01-31T14:42:02.992Z,120
2023-01-31T14:42:43.536Z,125
2023-01-31T14:43:24.059Z,120
2023-01-31T14:45:37.164Z,125
2023-01-31T14:46:18.271Z,130
2023-01-31T14:47:02.234Z,125
2023-01-31T14:47:39.449Z,120
2023-01-31T14:50:21.540Z,80
2023-01-31T14:51:04.639Z,75
2023-01-31T14:51:46.669Z,75
2023-01-31T14:52:27.181Z,65
2023-01-31T14:54:41.021Z,60
2023-01-31T14:55:22.824Z,60
2023-01-31T14:56:04.287Z,65
2023-01-31T14:56:44.939Z,60
2023-01-31T14:58:57.950Z,55
2023-01-31T14:59:38.416Z,60
2023-01-31T15:00:18.946Z,65
2023-01-31T15:00:59.494Z,65
2023-01-31T15:05:02.654Z,60
2023-01-31T15:05:43.180Z,60
2023-01-31T15:06:23.723Z,60
2023-01-31T15:07:04.380Z,60
2023-01-31T15:07:44.877Z,60
2023-01-31T15:08:25.445Z,60
2023-01-31T15:09:05.973Z,60
2023-01-31T15:11:44.473Z,65
2023-01-31T15:12:25.056Z,65
2023-01-31T15:13:05.601Z,65
2023-01-31T15:13:46.829Z,65
2023-01-31T15:17:17.393Z,65
2023-01-31T15:17:50.119Z,60
2023-01-31T15:18:30.670Z,55
2023-01-31T15:19:11.188Z,45
2023-01-31T15:19:52.503Z,35
2023-01-31T15:20:33.196Z,30
2023-01-31T15:21:13.694Z,25
2023-01-31T15:27:19.216Z,20
2023-01-31T15:27:59.740Z,20
2023-01-31T15:28:40.266Z,20
2023-01-31T15:29:20.775Z,20
2023-01-31T15:30:01.316Z,20
2023-01-31T15:30:41.842Z,20
2023-01-31T15:31:23.009Z,20
2023-01-31T15:32:03.456Z,15
2023-01-31T15:32:43.983Z,15
2023-01-31T15:39:29.539Z,15
2023-01-31T15:40:10.036Z,10
2023-01-31T15:40:50.550Z,10
2023-01-31T15:41:32.145Z,10
2023-01-31T15:42:11.617Z,10
2023-01-31T15:42:52.152Z,10
2023-01-31T15:43:32.633Z,10
2023-01-31T15:44:13.187Z,10
2023-01-31T15:44:53.720Z,10
2023-01-31T15:50:59.351Z,10
2023-01-31T15:51:40.597Z,10
2023-01-31T15:52:21.151Z,10
2023-01-31T15:53:01.634Z,10
2023-01-31T15:53:42.114Z,10
2023-01-31T15:54:23.338Z,10
2023-01-31T15:55:03.850Z,10
2023-01-31T16:01:49.126Z,5
2023-01-31T16:02:29.730Z,5
2023-01-31T16:03:10.223Z,5
2023-01-31T16:03:50.756Z,5
2023-01-31T16:04:31.302Z,5
2023-01-31T16:05:11.804Z,5
2023-01-31T16:05:52.458Z,5
2023-01-31T16:08:05.507Z,5
2023-01-31T16:08:46.051Z,5
2023-01-31T16:09:26.594Z,5
2023-01-31T16:10:07.117Z,5
2023-01-31T16:15:45.201Z,0
2023-01-31T16:16:25.785Z,0
2023-01-31T16:17:07.896Z,0
2023-01-31T16:17:48.421Z,0
2023-01-31T16:18:28.945Z,0
2023-01-31T16:19:09.503Z,0
2023-01-31T16:19:51.371Z,0
2023-01-31T16:20:31.877Z,0
2023-01-31T16:21:13.395Z,0
2023-01-31T16:24:00.506Z,0
2023-01-31T16:24:42.974Z,0
2023-01-31T16:28:09.046Z,0
2023-01-31T16:28:52.047Z,0
2023-01-31T16:31:01.011Z,0
2023-01-31T16:31:43.309Z,0
2023-01-31T16:32:24.380Z,0
2023-01-31T16:35:08.910Z,0
2023-01-31T16:35:52.574Z,0
2023-01-31T16:36:31.467Z,0
2023-01-31T16:37:13.808Z,0
2023-01-31T16:40:00.876Z,0
2023-01-31T16:40:43.563Z,0
2023-01-31T16:44:49.690Z,0
2023-01-31T16:45:30.972Z,0
2023-01-31T16:46:11.575Z,0
2023-01-31T16:46:52.146Z,0
2023-01-31T16:47:32.629Z,0
2023-01-31T16:48:13.193Z,0
2023-01-31T16:48:53.773Z,0
2023-01-31T16:50:20.985Z,0
2023-01-31T16:51:01.872Z,0
2023-01-31T16:54:28.974Z,0
2023-01-31T16:55:09.473Z,0
2023-01-31T16:55:52.369Z,0
2023-01-31T16:56:32.894Z,0
2023-01-31T16:57:13.402Z,0
2023-01-31T17:01:19.598Z,0
2023-01-31T17:02:00.136Z,0
2023-01-31T17:02:42.003Z,0
2023-01-31T17:03:22.408Z,0
2023-01-31T17:04:02.989Z,0
2023-01-31T17:04:43.555Z,0
2023-01-31T17:06:08.883Z,0
2023-01-31T17:06:49.979Z,0
2023-01-31T17:07:31.055Z,0
2023-01-31T17:08:12.486Z,0
2023-01-31T17:08:53.153Z,0
2023-01-31T17:09:33.803Z,0
2023-01-31T17:11:43.923Z,0
2023-01-31T17:13:49.402Z,0
2023-01-31T17:14:30.562Z,0
2023-01-31T17:15:12.463Z,0
2023-01-31T17:15:54.062Z,0
2023-01-31T17:18:38.890Z,0
2023-01-31T17:19:19.436Z,0
2023-01-31T17:20:00.783Z,0
2023-01-31T17:20:41.374Z,0
2023-01-31T17:21:21.895Z,0
2023-01-31T17:23:07.643Z,0
2023-01-31T17:23:32.826Z,0
2023-01-31T17:24:59.377Z,0
2023-01-31T17:25:39.871Z,0
2023-01-31T17:26:21.088Z,0
2023-01-31T17:27:01.611Z,0
2023-01-31T17:27:42.186Z,0
2023-01-31T17:28:22.741Z,0
2023-01-31T17:30:29.396Z,0
2023-01-31T17:31:12.539Z,0
2023-01-31T17:31:53.058Z,0
2023-01-31T17:33:59.095Z,0
2023-01-31T17:34:42.174Z,0
2023-01-31T17:35:22.994Z,0
2023-01-31T17:36:03.209Z,0
2023-01-31T17:36:43.769Z,0
2023-01-31T17:39:29.874Z,0
2023-01-31T17:40:11.960Z,0
2023-01-31T17:42:59.479Z,0
2023-01-31T17:43:40.536Z,0
2023-01-31T17:44:23.847Z,0
2023-01-31T17:47:09.832Z,0
2023-01-31T17:47:50.411Z,0
2023-01-31T17:50:31.477Z,0
2023-01-31T17:51:12.007Z,0
2023-01-31T17:51:52.573Z,0
2023-01-31T17:52:33.160Z,0
2023-01-31T17:55:56.064Z,0
2023-01-31T17:56:36.622Z,0
2023-01-31T17:57:18.230Z,0
2023-01-31T17:57:58.651Z,0
2023-01-31T17:58:39.188Z,0
2023-01-31T17:59:26.784Z,0
2023-01-31T18:00:00.255Z,0
2023-01-31T18:00:40.829Z,0
2023-01-31T18:07:38.261Z,0
2023-01-31T18:08:18.796Z,0
2023-01-31T18:08:59.346Z,0
2023-01-31T18:09:39.879Z,0
2023-01-31T18:13:02.497Z,0
2023-01-31T18:13:43.032Z,0
2023-01-31T18:14:23.552Z,0
2023-01-31T18:15:04.063Z,0
2023-01-31T18:15:44.716Z,0
2023-01-31T18:16:25.237Z,0
2023-01-31T18:17:05.694Z,0
2023-01-31T18:17:46.278Z,0
2023-01-31T18:18:26.826Z,0
2023-01-31T18:24:32.562Z,0
2023-01-31T18:25:13.106Z,0
2023-01-31T18:25:53.613Z,0
2023-01-31T18:26:34.294Z,0